Terminal Aerodrome Forecast
Issued by NWS

Home | Current Version | Previous Version | Text Only | Print | Product List | Glossary On
Versions: 1 2 3 4 5 6 7 8 9 10 11 12
000
FTUS42 KTAE 290500
TAFECP
TAF
KECP 290520Z 2906/3006 00000KT P6SM BKN250
     FM291500 16008KT P6SM SHRA BKN040
      TEMPO 2917/2921 3SM TSRA BKN040CB
     FM300300 VRB03KT P6SM FEW030 BKN250=

USA.gov is the U.S. government's official web portal to all federal, state and local government web resources and services.